sensor_id;sensor_type;location;lat;lon;timestamp;P1;durP1;ratioP1;P2;durP2;ratioP2
75426;SDS011;64007;50.632;13.700;2024-03-06T00:00:57;34.58;;;19.67;;
75426;SDS011;64007;50.632;13.700;2024-03-06T00:03:43;42.33;;;21.13;;
75426;SDS011;64007;50.632;13.700;2024-03-06T00:06:08;45.53;;;21.35;;
75426;SDS011;64007;50.632;13.700;2024-03-06T00:08:34;45.20;;;21.77;;
75426;SDS011;64007;50.632;13.700;2024-03-06T00:11:00;40.33;;;20.98;;
75426;SDS011;64007;50.632;13.700;2024-03-06T00:13:25;44.38;;;21.52;;
75426;SDS011;64007;50.632;13.700;2024-03-06T00:15:51;45.50;;;22.00;;
75426;SDS011;64007;50.632;13.700;2024-03-06T00:18:17;42.42;;;19.95;;
75426;SDS011;64007;50.632;13.700;2024-03-06T00:20:42;44.38;;;20.50;;
75426;SDS011;64007;50.632;13.700;2024-03-06T00:23:10;50.67;;;21.33;;
75426;SDS011;64007;50.632;13.700;2024-03-06T00:25:35;44.33;;;21.25;;
75426;SDS011;64007;50.632;13.700;2024-03-06T00:28:01;43.53;;;20.88;;
75426;SDS011;64007;50.632;13.700;2024-03-06T00:30:27;37.00;;;19.95;;
75426;SDS011;64007;50.632;13.700;2024-03-06T00:32:53;44.80;;;21.13;;
75426;SDS011;64007;50.632;13.700;2024-03-06T00:35:18;37.58;;;19.73;;
75426;SDS011;64007;50.632;13.700;2024-03-06T00:37:44;41.25;;;20.48;;
75426;SDS011;64007;50.632;13.700;2024-03-06T00:40:10;42.00;;;20.75;;
75426;SDS011;64007;50.632;13.700;2024-03-06T00:42:38;34.72;;;20.17;;
75426;SDS011;64007;50.632;13.700;2024-03-06T00:45:05;39.05;;;20.50;;
75426;SDS011;64007;50.632;13.700;2024-03-06T00:47:31;34.53;;;19.17;;
75426;SDS011;64007;50.632;13.700;2024-03-06T00:49:59;39.28;;;20.42;;
75426;SDS011;64007;50.632;13.700;2024-03-06T00:52:25;40.15;;;18.67;;
75426;SDS011;64007;50.632;13.700;2024-03-06T00:54:51;38.85;;;18.95;;
75426;SDS011;64007;50.632;13.700;2024-03-06T00:57:17;39.70;;;19.67;;
75426;SDS011;64007;50.632;13.700;2024-03-06T00:59:42;39.58;;;20.05;;
75426;SDS011;64007;50.632;13.700;2024-03-06T01:02:08;35.97;;;19.77;;
75426;SDS011;64007;50.632;13.700;2024-03-06T01:04:33;35.83;;;17.90;;
75426;SDS011;64007;50.632;13.700;2024-03-06T01:06:59;36.00;;;18.90;;
75426;SDS011;64007;50.632;13.700;2024-03-06T01:09:25;41.60;;;19.27;;
75426;SDS011;64007;50.632;13.700;2024-03-06T01:11:52;38.35;;;20.10;;
75426;SDS011;64007;50.632;13.700;2024-03-06T01:14:17;33.88;;;18.30;;
75426;SDS011;64007;50.632;13.700;2024-03-06T01:16:43;44.17;;;20.38;;
75426;SDS011;64007;50.632;13.700;2024-03-06T01:19:09;35.08;;;19.63;;
75426;SDS011;64007;50.632;13.700;2024-03-06T01:21:34;36.20;;;19.30;;
75426;SDS011;64007;50.632;13.700;2024-03-06T01:24:00;42.08;;;20.75;;
75426;SDS011;64007;50.632;13.700;2024-03-06T01:26:26;42.22;;;20.60;;
75426;SDS011;64007;50.632;13.700;2024-03-06T01:28:52;36.65;;;18.65;;
75426;SDS011;64007;50.632;13.700;2024-03-06T01:31:18;37.13;;;18.23;;
75426;SDS011;64007;50.632;13.700;2024-03-06T01:33:43;38.90;;;18.95;;
75426;SDS011;64007;50.632;13.700;2024-03-06T01:36:09;33.75;;;17.38;;
75426;SDS011;64007;50.632;13.700;2024-03-06T01:38:35;32.33;;;17.05;;
75426;SDS011;64007;50.632;13.700;2024-03-06T01:41:00;35.30;;;17.17;;
75426;SDS011;64007;50.632;13.700;2024-03-06T01:43:27;31.55;;;16.83;;
75426;SDS011;64007;50.632;13.700;2024-03-06T01:45:52;34.60;;;16.63;;
75426;SDS011;64007;50.632;13.700;2024-03-06T01:48:22;29.27;;;14.43;;
75426;SDS011;64007;50.632;13.700;2024-03-06T01:53:18;32.10;;;12.63;;
75426;SDS011;64007;50.632;13.700;2024-03-06T01:55:44;28.23;;;12.90;;
75426;SDS011;64007;50.632;13.700;2024-03-06T01:58:10;25.85;;;12.65;;
75426;SDS011;64007;50.632;13.700;2024-03-06T02:00:36;27.02;;;12.73;;
75426;SDS011;64007;50.632;13.700;2024-03-06T02:03:02;24.40;;;12.50;;
75426;SDS011;64007;50.632;13.700;2024-03-06T02:05:29;26.77;;;11.80;;
75426;SDS011;64007;50.632;13.700;2024-03-06T02:07:56;23.08;;;11.50;;
75426;SDS011;64007;50.632;13.700;2024-03-06T02:10:24;23.02;;;11.00;;
75426;SDS011;64007;50.632;13.700;2024-03-06T02:12:51;24.35;;;11.90;;
75426;SDS011;64007;50.632;13.700;2024-03-06T02:15:18;26.88;;;12.52;;
75426;SDS011;64007;50.632;13.700;2024-03-06T02:17:44;26.58;;;12.35;;
75426;SDS011;64007;50.632;13.700;2024-03-06T02:20:11;27.25;;;11.52;;
75426;SDS011;64007;50.632;13.700;2024-03-06T02:22:40;26.38;;;11.93;;
75426;SDS011;64007;50.632;13.700;2024-03-06T02:25:06;24.95;;;10.32;;
75426;SDS011;64007;50.632;13.700;2024-03-06T02:27:32;21.80;;;10.30;;
75426;SDS011;64007;50.632;13.700;2024-03-06T02:29:58;19.63;;;10.63;;
75426;SDS011;64007;50.632;13.700;2024-03-06T02:32:23;21.00;;;10.60;;
75426;SDS011;64007;50.632;13.700;2024-03-06T02:34:50;27.65;;;11.65;;
75426;SDS011;64007;50.632;13.700;2024-03-06T02:37:15;25.23;;;10.90;;
75426;SDS011;64007;50.632;13.700;2024-03-06T02:39:41;24.10;;;12.73;;
75426;SDS011;64007;50.632;13.700;2024-03-06T02:42:07;28.70;;;13.05;;
75426;SDS011;64007;50.632;13.700;2024-03-06T02:44:33;22.00;;;12.32;;
75426;SDS011;64007;50.632;13.700;2024-03-06T02:46:58;21.92;;;11.30;;
75426;SDS011;64007;50.632;13.700;2024-03-06T02:49:24;20.70;;;10.85;;
75426;SDS011;64007;50.632;13.700;2024-03-06T02:51:50;22.70;;;10.50;;
75426;SDS011;64007;50.632;13.700;2024-03-06T02:54:16;22.15;;;9.50;;
75426;SDS011;64007;50.632;13.700;2024-03-06T02:56:42;20.33;;;9.73;;
75426;SDS011;64007;50.632;13.700;2024-03-06T02:59:08;18.95;;;9.88;;
75426;SDS011;64007;50.632;13.700;2024-03-06T03:01:34;21.83;;;10.02;;
75426;SDS011;64007;50.632;13.700;2024-03-06T03:03:59;18.35;;;9.90;;
75426;SDS011;64007;50.632;13.700;2024-03-06T03:06:25;21.98;;;9.65;;
75426;SDS011;64007;50.632;13.700;2024-03-06T03:08:51;18.88;;;9.57;;
75426;SDS011;64007;50.632;13.700;2024-03-06T03:11:17;22.52;;;9.85;;
75426;SDS011;64007;50.632;13.700;2024-03-06T03:13:43;22.98;;;9.85;;
75426;SDS011;64007;50.632;13.700;2024-03-06T03:16:18;18.40;;;9.75;;
75426;SDS011;64007;50.632;13.700;2024-03-06T03:18:45;19.85;;;10.52;;
75426;SDS011;64007;50.632;13.700;2024-03-06T03:21:13;19.30;;;10.50;;
75426;SDS011;64007;50.632;13.700;2024-03-06T03:23:39;23.23;;;10.25;;
75426;SDS011;64007;50.632;13.700;2024-03-06T03:26:05;20.58;;;10.57;;
75426;SDS011;64007;50.632;13.700;2024-03-06T03:28:31;21.80;;;11.35;;
75426;SDS011;64007;50.632;13.700;2024-03-06T03:30:58;26.73;;;12.10;;
75426;SDS011;64007;50.632;13.700;2024-03-06T03:33:24;24.55;;;11.88;;
75426;SDS011;64007;50.632;13.700;2024-03-06T03:35:50;27.08;;;11.65;;
75426;SDS011;64007;50.632;13.700;2024-03-06T03:38:15;28.75;;;11.35;;
75426;SDS011;64007;50.632;13.700;2024-03-06T03:40:42;24.75;;;11.70;;
75426;SDS011;64007;50.632;13.700;2024-03-06T03:43:08;26.30;;;10.52;;
75426;SDS011;64007;50.632;13.700;2024-03-06T03:45:34;21.23;;;10.52;;
75426;SDS011;64007;50.632;13.700;2024-03-06T03:48:04;22.48;;;11.05;;
75426;SDS011;64007;50.632;13.700;2024-03-06T03:50:30;25.77;;;11.73;;
75426;SDS011;64007;50.632;13.700;2024-03-06T03:52:57;30.38;;;12.25;;
75426;SDS011;64007;50.632;13.700;2024-03-06T03:55:26;31.17;;;12.55;;
75426;SDS011;64007;50.632;13.700;2024-03-06T03:57:52;25.08;;;11.30;;
75426;SDS011;64007;50.632;13.700;2024-03-06T04:00:18;25.40;;;12.13;;
75426;SDS011;64007;50.632;13.700;2024-03-06T04:02:44;21.17;;;10.65;;
75426;SDS011;64007;50.632;13.700;2024-03-06T04:05:10;27.55;;;11.10;;
75426;SDS011;64007;50.632;13.700;2024-03-06T04:07:36;20.67;;;10.27;;
75426;SDS011;64007;50.632;13.700;2024-03-06T04:10:03;24.23;;;11.82;;
75426;SDS011;64007;50.632;13.700;2024-03-06T04:12:29;21.23;;;10.93;;
75426;SDS011;64007;50.632;13.700;2024-03-06T04:14:56;22.67;;;10.77;;
75426;SDS011;64007;50.632;13.700;2024-03-06T04:17:22;25.85;;;11.32;;
75426;SDS011;64007;50.632;13.700;2024-03-06T04:19:47;27.92;;;11.63;;
75426;SDS011;64007;50.632;13.700;2024-03-06T04:22:14;24.73;;;12.00;;
75426;SDS011;64007;50.632;13.700;2024-03-06T04:24:43;22.63;;;11.70;;
75426;SDS011;64007;50.632;13.700;2024-03-06T04:27:09;24.08;;;11.30;;
75426;SDS011;64007;50.632;13.700;2024-03-06T04:29:34;19.60;;;11.07;;
75426;SDS011;64007;50.632;13.700;2024-03-06T04:32:00;20.30;;;9.98;;
75426;SDS011;64007;50.632;13.700;2024-03-06T04:34:26;24.95;;;11.98;;
75426;SDS011;64007;50.632;13.700;2024-03-06T04:36:52;22.58;;;11.43;;
75426;SDS011;64007;50.632;13.700;2024-03-06T04:39:17;26.05;;;11.13;;
75426;SDS011;64007;50.632;13.700;2024-03-06T04:41:43;24.77;;;12.02;;
75426;SDS011;64007;50.632;13.700;2024-03-06T04:44:09;25.83;;;12.10;;
75426;SDS011;64007;50.632;13.700;2024-03-06T04:46:34;27.88;;;13.90;;
75426;SDS011;64007;50.632;13.700;2024-03-06T04:49:00;30.35;;;13.18;;
75426;SDS011;64007;50.632;13.700;2024-03-06T04:51:26;32.35;;;13.15;;
75426;SDS011;64007;50.632;13.700;2024-03-06T04:53:51;29.20;;;13.00;;
75426;SDS011;64007;50.632;13.700;2024-03-06T04:56:17;25.92;;;13.02;;
75426;SDS011;64007;50.632;13.700;2024-03-06T04:58:47;31.25;;;13.68;;
75426;SDS011;64007;50.632;13.700;2024-03-06T05:01:13;31.10;;;14.32;;
75426;SDS011;64007;50.632;13.700;2024-03-06T05:03:39;31.73;;;14.07;;
75426;SDS011;64007;50.632;13.700;2024-03-06T05:06:05;25.45;;;13.38;;
75426;SDS011;64007;50.632;13.700;2024-03-06T05:08:31;29.90;;;13.30;;
75426;SDS011;64007;50.632;13.700;2024-03-06T05:10:59;31.67;;;15.13;;
75426;SDS011;64007;50.632;13.700;2024-03-06T05:13:26;29.35;;;14.57;;
75426;SDS011;64007;50.632;13.700;2024-03-06T05:15:52;30.73;;;16.08;;
75426;SDS011;64007;50.632;13.700;2024-03-06T05:18:19;33.70;;;15.07;;
75426;SDS011;64007;50.632;13.700;2024-03-06T05:20:45;29.02;;;15.60;;
75426;SDS011;64007;50.632;13.700;2024-03-06T05:23:11;32.05;;;15.95;;
75426;SDS011;64007;50.632;13.700;2024-03-06T05:25:38;36.67;;;15.95;;
75426;SDS011;64007;50.632;13.700;2024-03-06T05:28:04;37.55;;;17.23;;
75426;SDS011;64007;50.632;13.700;2024-03-06T05:30:30;34.50;;;16.98;;
75426;SDS011;64007;50.632;13.700;2024-03-06T05:32:55;44.70;;;17.77;;
75426;SDS011;64007;50.632;13.700;2024-03-06T05:35:21;35.63;;;17.00;;
75426;SDS011;64007;50.632;13.700;2024-03-06T05:37:47;37.72;;;17.48;;
75426;SDS011;64007;50.632;13.700;2024-03-06T05:40:13;34.67;;;16.92;;
75426;SDS011;64007;50.632;13.700;2024-03-06T05:42:38;36.83;;;17.73;;
75426;SDS011;64007;50.632;13.700;2024-03-06T05:45:04;29.90;;;16.92;;
75426;SDS011;64007;50.632;13.700;2024-03-06T05:47:38;37.75;;;17.80;;
75426;SDS011;64007;50.632;13.700;2024-03-06T05:50:05;39.63;;;19.27;;
75426;SDS011;64007;50.632;13.700;2024-03-06T05:52:31;42.80;;;20.55;;
75426;SDS011;64007;50.632;13.700;2024-03-06T05:54:57;48.00;;;21.80;;
75426;SDS011;64007;50.632;13.700;2024-03-06T05:57:23;53.08;;;21.83;;
75426;SDS011;64007;50.632;13.700;2024-03-06T05:59:48;42.20;;;22.23;;
75426;SDS011;64007;50.632;13.700;2024-03-06T06:02:15;43.45;;;21.05;;
75426;SDS011;64007;50.632;13.700;2024-03-06T06:04:45;46.38;;;21.95;;
75426;SDS011;64007;50.632;13.700;2024-03-06T06:07:11;49.65;;;22.45;;
75426;SDS011;64007;50.632;13.700;2024-03-06T06:09:36;50.58;;;22.05;;
75426;SDS011;64007;50.632;13.700;2024-03-06T06:12:02;55.90;;;24.70;;
75426;SDS011;64007;50.632;13.700;2024-03-06T06:14:28;84.25;;;39.72;;
75426;SDS011;64007;50.632;13.700;2024-03-06T06:16:55;115.70;;;47.15;;
75426;SDS011;64007;50.632;13.700;2024-03-06T06:19:21;78.30;;;34.90;;
75426;SDS011;64007;50.632;13.700;2024-03-06T06:21:47;45.10;;;22.85;;
75426;SDS011;64007;50.632;13.700;2024-03-06T06:24:13;48.63;;;22.25;;
75426;SDS011;64007;50.632;13.700;2024-03-06T06:26:39;46.72;;;21.73;;
75426;SDS011;64007;50.632;13.700;2024-03-06T06:29:05;44.25;;;21.25;;
75426;SDS011;64007;50.632;13.700;2024-03-06T06:31:30;47.38;;;22.13;;
75426;SDS011;64007;50.632;13.700;2024-03-06T06:33:56;42.70;;;21.08;;
75426;SDS011;64007;50.632;13.700;2024-03-06T06:36:22;42.25;;;21.65;;
75426;SDS011;64007;50.632;13.700;2024-03-06T06:38:49;41.42;;;21.85;;
75426;SDS011;64007;50.632;13.700;2024-03-06T06:41:14;43.20;;;21.33;;
75426;SDS011;64007;50.632;13.700;2024-03-06T06:43:41;40.10;;;21.15;;
75426;SDS011;64007;50.632;13.700;2024-03-06T06:46:07;45.75;;;22.13;;
75426;SDS011;64007;50.632;13.700;2024-03-06T06:48:33;48.47;;;21.88;;
75426;SDS011;64007;50.632;13.700;2024-03-06T06:51:01;42.65;;;21.15;;
75426;SDS011;64007;50.632;13.700;2024-03-06T06:53:30;41.55;;;21.15;;
75426;SDS011;64007;50.632;13.700;2024-03-06T06:55:56;46.88;;;22.27;;
75426;SDS011;64007;50.632;13.700;2024-03-06T06:58:23;47.72;;;21.65;;
75426;SDS011;64007;50.632;13.700;2024-03-06T07:00:48;63.58;;;28.48;;
75426;SDS011;64007;50.632;13.700;2024-03-06T07:03:14;55.72;;;25.30;;
75426;SDS011;64007;50.632;13.700;2024-03-06T07:05:40;48.92;;;22.63;;
75426;SDS011;64007;50.632;13.700;2024-03-06T07:08:08;41.85;;;21.85;;
75426;SDS011;64007;50.632;13.700;2024-03-06T07:10:33;50.08;;;21.60;;
75426;SDS011;64007;50.632;13.700;2024-03-06T07:13:01;46.10;;;21.00;;
75426;SDS011;64007;50.632;13.700;2024-03-06T07:15:28;43.75;;;21.02;;
75426;SDS011;64007;50.632;13.700;2024-03-06T07:17:54;40.90;;;20.30;;
75426;SDS011;64007;50.632;13.700;2024-03-06T07:20:20;43.65;;;19.35;;
75426;SDS011;64007;50.632;13.700;2024-03-06T07:22:46;43.85;;;20.77;;
75426;SDS011;64007;50.632;13.700;2024-03-06T07:25:11;41.58;;;19.50;;
75426;SDS011;64007;50.632;13.700;2024-03-06T07:27:37;45.42;;;20.85;;
75426;SDS011;64007;50.632;13.700;2024-03-06T07:30:03;44.53;;;20.77;;
75426;SDS011;64007;50.632;13.700;2024-03-06T07:32:29;42.33;;;22.00;;
75426;SDS011;64007;50.632;13.700;2024-03-06T07:34:55;54.72;;;26.45;;
75426;SDS011;64007;50.632;13.700;2024-03-06T07:37:21;47.83;;;22.30;;
75426;SDS011;64007;50.632;13.700;2024-03-06T07:39:46;47.85;;;22.00;;
75426;SDS011;64007;50.632;13.700;2024-03-06T07:42:12;45.60;;;21.50;;
75426;SDS011;64007;50.632;13.700;2024-03-06T07:44:38;49.53;;;22.52;;
75426;SDS011;64007;50.632;13.700;2024-03-06T07:47:03;59.08;;;29.48;;
75426;SDS011;64007;50.632;13.700;2024-03-06T07:49:29;64.05;;;29.10;;
75426;SDS011;64007;50.632;13.700;2024-03-06T07:51:57;51.63;;;22.05;;
75426;SDS011;64007;50.632;13.700;2024-03-06T07:54:23;48.42;;;22.60;;
75426;SDS011;64007;50.632;13.700;2024-03-06T07:56:48;47.85;;;22.70;;
75426;SDS011;64007;50.632;13.700;2024-03-06T07:59:14;42.35;;;20.95;;
75426;SDS011;64007;50.632;13.700;2024-03-06T08:01:40;45.42;;;21.92;;
75426;SDS011;64007;50.632;13.700;2024-03-06T08:04:06;46.83;;;21.25;;
75426;SDS011;64007;50.632;13.700;2024-03-06T08:06:32;45.63;;;21.95;;
75426;SDS011;64007;50.632;13.700;2024-03-06T08:08:59;49.83;;;23.63;;
75426;SDS011;64007;50.632;13.700;2024-03-06T08:11:24;49.38;;;23.35;;
75426;SDS011;64007;50.632;13.700;2024-03-06T08:13:56;43.60;;;22.17;;
75426;SDS011;64007;50.632;13.700;2024-03-06T08:18:48;49.35;;;22.23;;
75426;SDS011;64007;50.632;13.700;2024-03-06T08:21:13;41.83;;;21.65;;
75426;SDS011;64007;50.632;13.700;2024-03-06T08:23:39;44.67;;;20.58;;
75426;SDS011;64007;50.632;13.700;2024-03-06T08:26:05;48.45;;;23.85;;
75426;SDS011;64007;50.632;13.700;2024-03-06T08:28:31;44.97;;;21.15;;
75426;SDS011;64007;50.632;13.700;2024-03-06T08:30:57;42.00;;;21.85;;
75426;SDS011;64007;50.632;13.700;2024-03-06T08:33:22;53.45;;;23.13;;
75426;SDS011;64007;50.632;13.700;2024-03-06T08:35:48;44.67;;;23.65;;
75426;SDS011;64007;50.632;13.700;2024-03-06T08:38:14;52.88;;;22.92;;
75426;SDS011;64007;50.632;13.700;2024-03-06T08:40:39;44.95;;;21.05;;
75426;SDS011;64007;50.632;13.700;2024-03-06T08:43:07;49.78;;;22.67;;
75426;SDS011;64007;50.632;13.700;2024-03-06T08:45:34;51.28;;;21.85;;
75426;SDS011;64007;50.632;13.700;2024-03-06T08:48:00;46.00;;;20.55;;
75426;SDS011;64007;50.632;13.700;2024-03-06T08:50:25;48.92;;;22.48;;
75426;SDS011;64007;50.632;13.700;2024-03-06T08:52:51;46.78;;;22.98;;
75426;SDS011;64007;50.632;13.700;2024-03-06T08:55:17;49.58;;;23.10;;
75426;SDS011;64007;50.632;13.700;2024-03-06T08:57:43;42.20;;;22.85;;
75426;SDS011;64007;50.632;13.700;2024-03-06T09:00:09;49.28;;;22.90;;
75426;SDS011;64007;50.632;13.700;2024-03-06T09:02:38;43.90;;;21.65;;
75426;SDS011;64007;50.632;13.700;2024-03-06T09:05:05;46.03;;;22.58;;
75426;SDS011;64007;50.632;13.700;2024-03-06T09:07:32;41.45;;;21.13;;
75426;SDS011;64007;50.632;13.700;2024-03-06T09:10:03;43.28;;;20.90;;
75426;SDS011;64007;50.632;13.700;2024-03-06T09:12:30;46.38;;;21.67;;
75426;SDS011;64007;50.632;13.700;2024-03-06T09:14:56;44.33;;;21.17;;
75426;SDS011;64007;50.632;13.700;2024-03-06T09:17:22;38.45;;;20.05;;
75426;SDS011;64007;50.632;13.700;2024-03-06T09:19:47;44.78;;;20.50;;
75426;SDS011;64007;50.632;13.700;2024-03-06T09:22:13;40.13;;;20.42;;
75426;SDS011;64007;50.632;13.700;2024-03-06T09:24:39;48.85;;;21.23;;
75426;SDS011;64007;50.632;13.700;2024-03-06T09:27:05;40.78;;;20.55;;
75426;SDS011;64007;50.632;13.700;2024-03-06T09:29:30;38.83;;;19.02;;
75426;SDS011;64007;50.632;13.700;2024-03-06T09:31:56;44.78;;;20.05;;
75426;SDS011;64007;50.632;13.700;2024-03-06T09:34:22;38.05;;;18.90;;
75426;SDS011;64007;50.632;13.700;2024-03-06T09:36:49;41.80;;;20.17;;
75426;SDS011;64007;50.632;13.700;2024-03-06T09:39:16;42.10;;;19.88;;
75426;SDS011;64007;50.632;13.700;2024-03-06T09:41:46;33.17;;;16.90;;
75426;SDS011;64007;50.632;13.700;2024-03-06T09:44:12;35.20;;;16.70;;
75426;SDS011;64007;50.632;13.700;2024-03-06T09:46:48;34.15;;;17.85;;
75426;SDS011;64007;50.632;13.700;2024-03-06T09:49:18;32.80;;;16.83;;
75426;SDS011;64007;50.632;13.700;2024-03-06T09:51:47;38.88;;;18.60;;
75426;SDS011;64007;50.632;13.700;2024-03-06T09:54:15;43.22;;;16.73;;
75426;SDS011;64007;50.632;13.700;2024-03-06T09:56:48;35.50;;;17.55;;
75426;SDS011;64007;50.632;13.700;2024-03-06T09:59:14;33.97;;;15.48;;
75426;SDS011;64007;50.632;13.700;2024-03-06T10:01:50;34.55;;;16.73;;
75426;SDS011;64007;50.632;13.700;2024-03-06T10:04:20;35.83;;;17.45;;
75426;SDS011;64007;50.632;13.700;2024-03-06T10:06:47;33.03;;;18.27;;
75426;SDS011;64007;50.632;13.700;2024-03-06T10:09:17;37.28;;;18.25;;
75426;SDS011;64007;50.632;13.700;2024-03-06T10:11:44;32.65;;;17.70;;
75426;SDS011;64007;50.632;13.700;2024-03-06T10:14:10;34.88;;;16.60;;
75426;SDS011;64007;50.632;13.700;2024-03-06T10:16:37;37.55;;;17.55;;
75426;SDS011;64007;50.632;13.700;2024-03-06T10:19:15;41.85;;;16.83;;
75426;SDS011;64007;50.632;13.700;2024-03-06T10:21:43;31.00;;;15.07;;
75426;SDS011;64007;50.632;13.700;2024-03-06T10:24:28;39.88;;;17.58;;
75426;SDS011;64007;50.632;13.700;2024-03-06T10:26:55;32.70;;;17.27;;
75426;SDS011;64007;50.632;13.700;2024-03-06T10:29:24;34.75;;;15.45;;
75426;SDS011;64007;50.632;13.700;2024-03-06T10:31:51;36.67;;;17.38;;
75426;SDS011;64007;50.632;13.700;2024-03-06T10:34:20;38.90;;;17.48;;
75426;SDS011;64007;50.632;13.700;2024-03-06T10:36:48;32.00;;;17.30;;
75426;SDS011;64007;50.632;13.700;2024-03-06T10:39:29;32.33;;;17.05;;
75426;SDS011;64007;50.632;13.700;2024-03-06T10:41:59;31.08;;;18.48;;
75426;SDS011;64007;50.632;13.700;2024-03-06T10:44:27;36.88;;;17.75;;
75426;SDS011;64007;50.632;13.700;2024-03-06T10:46:59;35.50;;;17.13;;
75426;SDS011;64007;50.632;13.700;2024-03-06T10:49:25;34.33;;;16.77;;
75426;SDS011;64007;50.632;13.700;2024-03-06T10:51:58;37.72;;;17.65;;
75426;SDS011;64007;50.632;13.700;2024-03-06T10:54:28;36.92;;;17.60;;
75426;SDS011;64007;50.632;13.700;2024-03-06T10:56:55;31.45;;;16.95;;
75426;SDS011;64007;50.632;13.700;2024-03-06T10:59:23;38.40;;;17.92;;
75426;SDS011;64007;50.632;13.700;2024-03-06T11:01:54;33.47;;;16.90;;
75426;SDS011;64007;50.632;13.700;2024-03-06T11:04:30;36.08;;;17.95;;
75426;SDS011;64007;50.632;13.700;2024-03-06T11:07:00;34.10;;;17.08;;
75426;SDS011;64007;50.632;13.700;2024-03-06T11:09:27;36.15;;;17.15;;
75426;SDS011;64007;50.632;13.700;2024-03-06T11:11:57;31.27;;;15.45;;
75426;SDS011;64007;50.632;13.700;2024-03-06T11:14:23;28.13;;;15.27;;
75426;SDS011;64007;50.632;13.700;2024-03-06T11:16:56;29.83;;;14.15;;
75426;SDS011;64007;50.632;13.700;2024-03-06T11:19:24;27.48;;;14.10;;
75426;SDS011;64007;50.632;13.700;2024-03-06T11:21:51;24.73;;;13.50;;
75426;SDS011;64007;50.632;13.700;2024-03-06T11:24:20;29.38;;;13.13;;
75426;SDS011;64007;50.632;13.700;2024-03-06T11:27:04;23.98;;;12.52;;
75426;SDS011;64007;50.632;13.700;2024-03-06T11:30:19;24.95;;;12.00;;
75426;SDS011;64007;50.632;13.700;2024-03-06T11:32:28;20.48;;;12.20;;
75426;SDS011;64007;50.632;13.700;2024-03-06T11:34:54;24.35;;;13.60;;
75426;SDS011;64007;50.632;13.700;2024-03-06T11:37:20;25.08;;;12.40;;
75426;SDS011;64007;50.632;13.700;2024-03-06T11:39:46;22.52;;;11.30;;
75426;SDS011;64007;50.632;13.700;2024-03-06T11:42:13;24.52;;;10.73;;
75426;SDS011;64007;50.632;13.700;2024-03-06T11:44:51;17.67;;;10.57;;
75426;SDS011;64007;50.632;13.700;2024-03-06T11:47:20;23.13;;;11.73;;
75426;SDS011;64007;50.632;13.700;2024-03-06T11:49:45;22.17;;;13.07;;
75426;SDS011;64007;50.632;13.700;2024-03-06T11:52:11;24.73;;;12.80;;
75426;SDS011;64007;50.632;13.700;2024-03-06T11:54:37;25.08;;;12.25;;
75426;SDS011;64007;50.632;13.700;2024-03-06T11:57:04;23.10;;;10.68;;
75426;SDS011;64007;50.632;13.700;2024-03-06T11:59:34;16.13;;;9.10;;
75426;SDS011;64007;50.632;13.700;2024-03-06T12:02:04;17.58;;;9.57;;
75426;SDS011;64007;50.632;13.700;2024-03-06T12:04:31;19.02;;;9.95;;
75426;SDS011;64007;50.632;13.700;2024-03-06T12:06:59;18.80;;;9.43;;
75426;SDS011;64007;50.632;13.700;2024-03-06T12:09:25;22.38;;;9.90;;
75426;SDS011;64007;50.632;13.700;2024-03-06T12:11:52;22.48;;;10.30;;
75426;SDS011;64007;50.632;13.700;2024-03-06T12:14:18;18.50;;;9.65;;
75426;SDS011;64007;50.632;13.700;2024-03-06T12:16:57;20.42;;;10.18;;
75426;SDS011;64007;50.632;13.700;2024-03-06T12:19:32;20.05;;;9.50;;
75426;SDS011;64007;50.632;13.700;2024-03-06T12:22:02;19.98;;;10.30;;
75426;SDS011;64007;50.632;13.700;2024-03-06T12:24:32;20.58;;;9.85;;
75426;SDS011;64007;50.632;13.700;2024-03-06T12:27:04;15.27;;;7.82;;
75426;SDS011;64007;50.632;13.700;2024-03-06T12:29:32;13.95;;;8.38;;
75426;SDS011;64007;50.632;13.700;2024-03-06T12:31:58;19.02;;;8.57;;
75426;SDS011;64007;50.632;13.700;2024-03-06T12:34:24;12.52;;;8.00;;
75426;SDS011;64007;50.632;13.700;2024-03-06T12:36:50;15.30;;;8.48;;
75426;SDS011;64007;50.632;13.700;2024-03-06T12:39:16;16.00;;;8.45;;
75426;SDS011;64007;50.632;13.700;2024-03-06T12:44:15;16.27;;;9.13;;
75426;SDS011;64007;50.632;13.700;2024-03-06T12:46:41;16.08;;;8.57;;
75426;SDS011;64007;50.632;13.700;2024-03-06T12:49:07;16.75;;;8.63;;
75426;SDS011;64007;50.632;13.700;2024-03-06T12:51:33;19.25;;;10.05;;
75426;SDS011;64007;50.632;13.700;2024-03-06T12:53:59;21.33;;;9.63;;
75426;SDS011;64007;50.632;13.700;2024-03-06T12:56:25;17.98;;;9.32;;
75426;SDS011;64007;50.632;13.700;2024-03-06T12:58:51;18.80;;;10.23;;
75426;SDS011;64007;50.632;13.700;2024-03-06T13:01:17;17.42;;;9.10;;
75426;SDS011;64007;50.632;13.700;2024-03-06T13:03:43;18.73;;;9.35;;
75426;SDS011;64007;50.632;13.700;2024-03-06T13:06:09;20.73;;;9.55;;
75426;SDS011;64007;50.632;13.700;2024-03-06T13:08:35;19.42;;;11.35;;
75426;SDS011;64007;50.632;13.700;2024-03-06T13:11:01;22.20;;;12.30;;
75426;SDS011;64007;50.632;13.700;2024-03-06T13:13:28;20.55;;;11.88;;
75426;SDS011;64007;50.632;13.700;2024-03-06T13:15:55;21.95;;;12.27;;
75426;SDS011;64007;50.632;13.700;2024-03-06T13:18:21;20.10;;;11.43;;
75426;SDS011;64007;50.632;13.700;2024-03-06T13:20:47;18.48;;;11.45;;
75426;SDS011;64007;50.632;13.700;2024-03-06T13:23:13;26.98;;;12.18;;
75426;SDS011;64007;50.632;13.700;2024-03-06T13:25:38;27.40;;;11.25;;
75426;SDS011;64007;50.632;13.700;2024-03-06T13:28:04;22.10;;;12.63;;
75426;SDS011;64007;50.632;13.700;2024-03-06T13:30:30;20.25;;;12.57;;
75426;SDS011;64007;50.632;13.700;2024-03-06T13:32:56;25.00;;;11.75;;
75426;SDS011;64007;50.632;13.700;2024-03-06T13:35:23;31.15;;;13.25;;
75426;SDS011;64007;50.632;13.700;2024-03-06T13:37:49;19.80;;;12.38;;
75426;SDS011;64007;50.632;13.700;2024-03-06T13:40:15;23.08;;;12.13;;
75426;SDS011;64007;50.632;13.700;2024-03-06T13:42:44;19.08;;;11.85;;
75426;SDS011;64007;50.632;13.700;2024-03-06T13:45:10;24.15;;;13.00;;
75426;SDS011;64007;50.632;13.700;2024-03-06T13:47:40;20.52;;;12.35;;
75426;SDS011;64007;50.632;13.700;2024-03-06T13:50:10;20.70;;;11.85;;
75426;SDS011;64007;50.632;13.700;2024-03-06T13:52:37;22.40;;;12.68;;
75426;SDS011;64007;50.632;13.700;2024-03-06T13:55:02;22.25;;;12.38;;
75426;SDS011;64007;50.632;13.700;2024-03-06T13:57:31;25.45;;;13.75;;
75426;SDS011;64007;50.632;13.700;2024-03-06T13:59:59;18.23;;;10.93;;
75426;SDS011;64007;50.632;13.700;2024-03-06T14:02:30;24.80;;;10.77;;
75426;SDS011;64007;50.632;13.700;2024-03-06T14:04:56;20.50;;;12.32;;
75426;SDS011;64007;50.632;13.700;2024-03-06T14:07:22;19.75;;;12.95;;
75426;SDS011;64007;50.632;13.700;2024-03-06T14:09:49;23.92;;;12.98;;
75426;SDS011;64007;50.632;13.700;2024-03-06T14:12:15;24.95;;;13.52;;
75426;SDS011;64007;50.632;13.700;2024-03-06T14:14:41;21.85;;;13.98;;
75426;SDS011;64007;50.632;13.700;2024-03-06T14:17:07;28.33;;;13.10;;